createdAt,value
2018-07-24T00:01:31.840Z,5.60
2018-07-24T00:04:00.079Z,5.37
2018-07-24T00:06:28.389Z,8.37
2018-07-24T00:08:56.563Z,11.03
2018-07-24T00:11:24.811Z,5.97
2018-07-24T00:13:52.960Z,5.30
2018-07-24T00:16:21.164Z,4.77
2018-07-24T00:18:49.409Z,4.83
2018-07-24T00:21:17.644Z,5.70
2018-07-24T00:23:46.301Z,4.80
2018-07-24T00:26:14.575Z,4.87
2018-07-24T00:28:42.749Z,8.23
2018-07-24T00:31:11.002Z,6.43
2018-07-24T00:33:39.236Z,28.67
2018-07-24T00:36:07.536Z,8.17
2018-07-24T00:38:35.712Z,10.97
2018-07-24T00:41:03.935Z,10.40
2018-07-24T00:43:32.205Z,5.80
2018-07-24T00:46:00.461Z,6.30
2018-07-24T00:48:28.687Z,5.77
2018-07-24T00:50:56.931Z,5.70
2018-07-24T00:53:25.181Z,7.10
2018-07-24T00:55:53.490Z,8.40
2018-07-24T00:58:21.711Z,7.43
2018-07-24T01:00:49.997Z,6.43
2018-07-24T01:03:18.283Z,5.63
2018-07-24T01:05:46.433Z,6.47
2018-07-24T01:08:14.635Z,5.53
2018-07-24T01:10:42.822Z,8.30
2018-07-24T01:13:11.016Z,6.50
2018-07-24T01:15:39.193Z,10.77
2018-07-24T01:18:07.953Z,8.93
2018-07-24T01:20:36.099Z,6.07
2018-07-24T01:23:04.514Z,5.87
2018-07-24T01:25:32.739Z,6.23
2018-07-24T01:28:00.981Z,5.87
2018-07-24T01:30:29.427Z,5.67
2018-07-24T01:32:57.606Z,5.93
2018-07-24T01:35:25.833Z,6.60
2018-07-24T01:37:54.078Z,6.03
2018-07-24T01:40:22.187Z,6.23
2018-07-24T01:42:50.484Z,11.23
2018-07-24T01:45:18.804Z,7.07
2018-07-24T01:47:47.035Z,5.90
2018-07-24T01:50:15.291Z,5.87
2018-07-24T01:52:43.647Z,18.83
2018-07-24T01:55:11.808Z,30.53
2018-07-24T01:57:39.977Z,11.80
2018-07-24T02:00:08.721Z,11.47
2018-07-24T02:02:36.959Z,7.20
2018-07-24T02:05:05.137Z,7.03
2018-07-24T02:07:33.394Z,6.70
2018-07-24T02:10:01.587Z,6.40
2018-07-24T02:12:29.845Z,6.70
2018-07-24T02:14:58.173Z,11.13
2018-07-24T02:17:26.364Z,21.10
2018-07-24T02:19:54.586Z,15.37
2018-07-24T02:22:22.885Z,8.10
2018-07-24T02:24:51.940Z,7.67
2018-07-24T02:27:20.104Z,6.97
2018-07-24T02:29:48.208Z,7.03
2018-07-24T02:32:16.443Z,6.77
2018-07-24T02:34:44.729Z,7.10
2018-07-24T02:37:12.968Z,6.80
2018-07-24T02:39:41.190Z,6.73
2018-07-24T02:42:09.423Z,6.73
2018-07-24T02:44:37.585Z,5.60
2018-07-24T02:47:05.802Z,6.23
2018-07-24T02:49:34.040Z,6.20
2018-07-24T02:52:02.241Z,5.80
2018-07-24T02:54:30.417Z,5.93
2018-07-24T02:56:58.857Z,5.77
2018-07-24T02:59:27.013Z,5.80
2018-07-24T03:01:55.282Z,5.90
2018-07-24T03:04:23.425Z,5.83
2018-07-24T03:06:51.537Z,5.43
2018-07-24T03:09:19.771Z,5.77
2018-07-24T03:11:48.041Z,6.23
2018-07-24T03:14:16.287Z,5.73
2018-07-24T03:16:44.468Z,6.37
2018-07-24T03:19:12.708Z,10.30
2018-07-24T03:21:41.009Z,16.77
2018-07-24T03:24:09.301Z,14.23
2018-07-24T03:26:37.500Z,8.00
2018-07-24T03:29:05.694Z,12.37
2018-07-24T03:31:33.959Z,9.37
2018-07-24T03:34:02.159Z,7.40
2018-07-24T03:36:30.321Z,13.43
2018-07-24T03:38:58.715Z,11.67
2018-07-24T03:41:26.957Z,9.03
2018-07-24T03:43:55.141Z,8.10
2018-07-24T03:46:23.368Z,8.20
2018-07-24T03:48:51.527Z,8.83
2018-07-24T03:51:20.051Z,7.30
2018-07-24T03:53:48.245Z,8.33
2018-07-24T03:56:16.521Z,7.90
2018-07-24T03:58:44.713Z,8.50
2018-07-24T04:01:12.870Z,9.03
2018-07-24T04:03:41.168Z,9.43
2018-07-24T04:06:09.610Z,9.17
2018-07-24T04:08:37.738Z,8.37
2018-07-24T04:11:06.445Z,7.77
2018-07-24T04:13:34.613Z,7.60
2018-07-24T04:16:02.958Z,7.43
2018-07-24T04:18:37.271Z,8.03
2018-07-24T04:21:05.471Z,17.37
2018-07-24T04:23:33.612Z,28.63
2018-07-24T04:26:02.130Z,24.73
2018-07-24T04:28:30.337Z,11.95
2018-07-24T04:30:58.626Z,27.27
2018-07-24T04:33:26.877Z,14.70
2018-07-24T04:35:55.184Z,7.78
2018-07-24T04:38:23.355Z,7.12
2018-07-24T04:40:51.496Z,7.28
2018-07-24T04:43:19.825Z,8.55
2018-07-24T04:45:48.034Z,8.70
2018-07-24T04:48:16.360Z,9.63
2018-07-24T04:50:44.864Z,20.15
2018-07-24T04:53:13.046Z,13.03
2018-07-24T04:55:41.245Z,8.70
2018-07-24T04:58:09.563Z,9.25
2018-07-24T05:00:37.735Z,8.38
2018-07-24T05:03:06.522Z,8.98
2018-07-24T05:05:34.918Z,8.50
2018-07-24T05:08:03.264Z,8.23
2018-07-24T05:10:31.748Z,9.93
2018-07-24T05:12:59.891Z,9.85
2018-07-24T05:15:28.108Z,11.15
2018-07-24T05:17:56.875Z,9.90
2018-07-24T05:20:25.176Z,8.23
2018-07-24T05:22:53.432Z,22.52
2018-07-24T05:25:21.809Z,18.67
2018-07-24T05:27:51.011Z,8.13
2018-07-24T05:30:19.279Z,8.60
2018-07-24T05:32:47.503Z,10.43
2018-07-24T05:35:15.796Z,16.85
2018-07-24T05:37:44.124Z,8.88
2018-07-24T05:40:12.480Z,8.48
2018-07-24T05:42:40.642Z,7.08
2018-07-24T05:45:08.990Z,7.10
2018-07-24T05:47:37.187Z,6.62
2018-07-24T05:50:05.938Z,12.03
2018-07-24T05:52:34.174Z,12.55
2018-07-24T05:55:02.448Z,9.50
2018-07-24T05:57:30.818Z,8.63
2018-07-24T05:59:58.992Z,8.98
2018-07-24T06:02:27.157Z,7.12
2018-07-24T06:04:55.349Z,6.45
2018-07-24T06:07:23.848Z,6.35
2018-07-24T06:09:52.122Z,7.05
2018-07-24T06:12:20.361Z,7.00
2018-07-24T06:14:48.531Z,7.28
2018-07-24T06:17:16.759Z,6.75
2018-07-24T06:19:45.081Z,6.85
2018-07-24T06:22:13.286Z,5.80
2018-07-24T06:24:41.446Z,4.60
2018-07-24T06:27:10.118Z,4.65
2018-07-24T06:29:38.311Z,4.92
2018-07-24T06:32:06.666Z,5.30
2018-07-24T06:34:34.839Z,5.90
2018-07-24T06:37:03.011Z,4.97
2018-07-24T06:39:31.197Z,5.42
2018-07-24T06:41:59.385Z,5.47
2018-07-24T06:44:27.787Z,5.40
2018-07-24T06:46:55.912Z,4.87
2018-07-24T06:49:24.180Z,11.08
2018-07-24T06:51:52.351Z,4.90
2018-07-24T06:54:20.490Z,5.05
2018-07-24T06:56:48.715Z,5.95
2018-07-24T06:59:16.886Z,5.12
2018-07-24T07:01:45.490Z,4.83
2018-07-24T07:04:13.652Z,4.00
2018-07-24T07:06:42.290Z,3.92
2018-07-24T07:09:10.478Z,4.00
2018-07-24T07:11:38.743Z,4.30
2018-07-24T07:14:07.189Z,3.95
2018-07-24T07:16:35.569Z,4.40
2018-07-24T07:19:03.848Z,4.00
2018-07-24T07:21:32.060Z,4.22
2018-07-24T07:24:00.333Z,3.95
2018-07-24T07:26:28.570Z,3.50
2018-07-24T07:28:57.681Z,4.53
2018-07-24T07:31:25.893Z,4.78
2018-07-24T07:33:54.084Z,4.22
2018-07-24T07:36:22.339Z,4.22
2018-07-24T07:38:50.494Z,4.35
2018-07-24T07:41:18.659Z,4.55
2018-07-24T07:43:46.898Z,4.97
2018-07-24T07:46:15.106Z,8.60
2018-07-24T07:48:43.406Z,9.95
2018-07-24T07:51:11.630Z,4.53
2018-07-24T07:53:39.973Z,4.42
2018-07-24T07:56:08.146Z,3.52
2018-07-24T07:58:36.391Z,3.02
2018-07-24T08:01:04.610Z,5.72
2018-07-24T08:03:32.869Z,3.30
2018-07-24T08:06:01.361Z,3.95
2018-07-24T08:08:29.538Z,3.72
2018-07-24T08:10:57.694Z,3.15
2018-07-24T08:13:25.892Z,3.85
2018-07-24T08:15:54.067Z,3.37
2018-07-24T08:18:22.337Z,3.70
2018-07-24T08:20:50.473Z,4.53
2018-07-24T08:23:18.709Z,3.20
2018-07-24T08:25:47.465Z,3.70
2018-07-24T08:28:15.847Z,3.22
2018-07-24T08:30:43.935Z,3.70
2018-07-24T08:33:12.164Z,3.75
2018-07-24T08:35:40.859Z,3.75
2018-07-24T08:38:09.158Z,3.10
2018-07-24T08:40:37.474Z,3.15
2018-07-24T08:43:05.727Z,3.10
2018-07-24T08:45:34.025Z,3.27
2018-07-24T08:48:02.268Z,3.17
2018-07-24T08:50:30.778Z,5.42
2018-07-24T08:52:59.077Z,4.40
2018-07-24T08:55:27.577Z,4.55
2018-07-24T08:57:55.468Z,3.17
2018-07-24T09:00:23.660Z,3.70
2018-07-24T09:02:51.847Z,3.55
2018-07-24T09:05:20.079Z,3.42
2018-07-24T09:07:50.367Z,3.60
2018-07-24T09:10:18.638Z,3.27
2018-07-24T09:12:46.918Z,4.53
2018-07-24T09:15:15.165Z,3.67
2018-07-24T09:17:43.348Z,3.30
2018-07-24T09:20:11.641Z,3.87
2018-07-24T09:22:40.000Z,3.22
2018-07-24T09:25:09.193Z,3.27
2018-07-24T09:27:37.508Z,3.50
2018-07-24T09:30:05.771Z,3.35
2018-07-24T09:32:34.066Z,3.17
2018-07-24T09:35:02.368Z,3.10
2018-07-24T09:37:31.277Z,3.27
2018-07-24T09:39:59.555Z,3.42
2018-07-24T09:42:27.980Z,3.35
2018-07-24T09:44:56.365Z,3.17
2018-07-24T09:47:24.631Z,3.12
2018-07-24T09:49:52.904Z,3.17
2018-07-24T09:52:21.800Z,3.60
2018-07-24T09:54:50.276Z,3.55
2018-07-24T09:57:18.560Z,4.08
2018-07-24T09:59:46.816Z,4.08
2018-07-24T10:02:15.072Z,3.67
2018-07-24T10:04:43.353Z,3.72
2018-07-24T10:07:11.570Z,3.40
2018-07-24T10:09:39.810Z,3.20
2018-07-24T10:12:08.075Z,3.60
2018-07-24T10:14:36.467Z,3.70
2018-07-24T10:17:04.732Z,3.15
2018-07-24T10:19:32.888Z,4.55
2018-07-24T10:22:01.802Z,3.40
2018-07-24T10:24:30.151Z,2.95
2018-07-24T10:26:58.268Z,5.15
2018-07-24T10:29:26.434Z,3.33
2018-07-24T10:31:54.716Z,4.35
2018-07-24T10:34:22.943Z,5.12
2018-07-24T10:36:51.160Z,3.50
2018-07-24T10:39:19.317Z,4.22
2018-07-24T10:41:48.035Z,12.33
2018-07-24T10:44:16.239Z,8.00
2018-07-24T10:46:44.500Z,3.20
2018-07-24T10:49:13.261Z,4.00
2018-07-24T10:51:41.561Z,3.35
2018-07-24T10:54:09.716Z,2.95
2018-07-24T10:56:37.995Z,2.90
2018-07-24T10:59:06.270Z,3.37
2018-07-24T11:01:34.682Z,3.22
2018-07-24T11:04:02.926Z,3.17
2018-07-24T11:06:31.105Z,3.47
2018-07-24T11:08:59.263Z,2.70
2018-07-24T11:11:27.449Z,3.30
2018-07-24T11:13:55.763Z,3.58
2018-07-24T11:16:23.927Z,3.00
2018-07-24T11:18:52.149Z,4.05
2018-07-24T11:21:20.409Z,2.90
2018-07-24T11:23:48.669Z,4.60
2018-07-24T11:26:17.063Z,4.35
2018-07-24T11:28:45.213Z,3.00
2018-07-24T11:31:13.404Z,3.20
2018-07-24T11:33:41.587Z,3.25
2018-07-24T11:36:09.814Z,3.55
2018-07-24T11:38:38.026Z,2.70
2018-07-24T11:41:06.267Z,2.52
2018-07-24T11:43:34.769Z,3.00
2018-07-24T11:46:02.998Z,3.00
2018-07-24T11:48:31.270Z,3.05
2018-07-24T11:50:59.900Z,3.05
2018-07-24T11:53:28.313Z,3.10
2018-07-24T11:55:56.652Z,3.25
2018-07-24T11:58:24.940Z,3.10
2018-07-24T12:00:53.186Z,3.22
2018-07-24T12:03:21.655Z,2.95
2018-07-24T12:05:49.921Z,3.10
2018-07-24T12:08:18.130Z,3.62
2018-07-24T12:10:46.670Z,2.70
2018-07-24T12:13:14.988Z,3.02
2018-07-24T12:15:43.340Z,2.90
2018-07-24T12:18:11.534Z,2.80
2018-07-24T12:20:39.789Z,5.25
2018-07-24T12:23:08.182Z,3.47
2018-07-24T12:25:36.403Z,3.20
2018-07-24T12:28:04.760Z,3.10
2018-07-24T12:30:33.642Z,3.00
2018-07-24T12:33:02.885Z,3.08
2018-07-24T12:35:31.257Z,3.72
2018-07-24T12:37:59.483Z,3.90
2018-07-24T12:40:27.820Z,4.67
2018-07-24T12:42:56.042Z,5.45
2018-07-24T12:45:25.084Z,4.83
2018-07-24T12:47:53.386Z,4.62
2018-07-24T12:50:22.163Z,3.75
2018-07-24T12:52:50.370Z,3.33
2018-07-24T12:55:18.890Z,3.42
2018-07-24T12:57:47.139Z,2.72
2018-07-24T13:00:15.425Z,2.60
2018-07-24T13:02:43.656Z,2.75
2018-07-24T13:05:11.916Z,2.83
2018-07-24T13:07:40.277Z,3.65
2018-07-24T13:10:08.658Z,3.45
2018-07-24T13:12:36.728Z,2.90
2018-07-24T13:15:05.554Z,2.87
2018-07-24T13:17:33.835Z,2.50
2018-07-24T13:20:02.105Z,2.75
2018-07-24T13:22:30.328Z,2.70
2018-07-24T13:24:58.573Z,3.30
2018-07-24T13:27:26.772Z,2.83
2018-07-24T13:29:55.101Z,2.55
2018-07-24T13:32:24.014Z,3.35
2018-07-24T13:34:52.318Z,3.00
2018-07-24T13:37:20.584Z,2.62
2018-07-24T13:39:48.885Z,2.75
2018-07-24T13:42:17.263Z,2.83
2018-07-24T13:44:45.567Z,2.55
2018-07-24T13:47:13.817Z,3.00
2018-07-24T13:49:42.685Z,3.55
2018-07-24T13:52:11.625Z,3.00
2018-07-24T13:54:39.980Z,2.47
2018-07-24T13:57:08.259Z,2.58
2018-07-24T13:59:36.431Z,2.65
2018-07-24T14:02:04.832Z,3.10
2018-07-24T14:04:33.132Z,2.60
2018-07-24T14:07:01.432Z,2.30
2018-07-24T14:09:29.807Z,2.77
2018-07-24T14:11:58.795Z,3.00
2018-07-24T14:14:27.789Z,2.50
2018-07-24T14:16:56.088Z,2.65
2018-07-24T14:19:24.435Z,2.75
2018-07-24T14:21:52.750Z,3.75
2018-07-24T14:24:21.094Z,3.42
2018-07-24T14:26:49.554Z,3.72
2018-07-24T14:29:17.931Z,3.00
2018-07-24T14:31:46.250Z,2.80
2018-07-24T14:34:14.483Z,4.33
2018-07-24T14:36:42.831Z,2.90
2018-07-24T14:39:12.920Z,2.70
2018-07-24T14:41:41.197Z,2.72
2018-07-24T14:44:09.540Z,3.10
2018-07-24T14:46:37.970Z,2.70
2018-07-24T14:49:06.182Z,2.47
2018-07-24T14:51:34.605Z,2.50
2018-07-24T14:54:02.850Z,2.42
2018-07-24T14:56:31.272Z,2.50
2018-07-24T14:58:59.515Z,3.10
2018-07-24T15:01:27.908Z,4.35
2018-07-24T15:03:56.295Z,3.52
2018-07-24T15:06:24.617Z,3.70
2018-07-24T15:08:52.936Z,3.90
2018-07-24T15:11:21.203Z,6.35
2018-07-24T15:13:49.413Z,4.80
2018-07-24T15:16:17.855Z,4.35
2018-07-24T15:18:46.413Z,3.60
2018-07-24T15:21:14.972Z,3.40
2018-07-24T15:23:43.218Z,3.12
2018-07-24T15:26:11.512Z,3.35
2018-07-24T15:28:40.080Z,2.70
2018-07-24T15:31:08.487Z,2.40
2018-07-24T15:33:36.824Z,2.80
2018-07-24T15:36:05.106Z,2.37
2018-07-24T15:38:33.393Z,2.80
2018-07-24T15:41:01.558Z,2.42
2018-07-24T15:43:29.746Z,2.60
2018-07-24T15:45:57.914Z,4.85
2018-07-24T15:48:26.068Z,2.95
2018-07-24T15:50:54.413Z,3.42
2018-07-24T15:53:22.804Z,2.85
2018-07-24T15:55:51.168Z,2.55
2018-07-24T15:58:19.378Z,2.80
2018-07-24T16:00:47.575Z,2.80
2018-07-24T16:03:15.737Z,3.00
2018-07-24T16:05:43.941Z,3.67
2018-07-24T16:08:12.591Z,3.60
2018-07-24T16:10:40.867Z,7.35
2018-07-24T16:13:09.029Z,4.05
2018-07-24T16:15:37.322Z,4.45
2018-07-24T16:18:05.481Z,3.70
2018-07-24T16:20:33.773Z,4.58
2018-07-24T16:23:01.972Z,4.67
2018-07-24T16:25:30.163Z,4.72
2018-07-24T16:27:58.447Z,5.10
2018-07-24T16:30:26.849Z,3.20
2018-07-24T16:32:55.056Z,2.80
2018-07-24T16:35:23.229Z,3.33
2018-07-24T16:37:52.205Z,3.00
2018-07-24T16:40:20.730Z,3.10
2018-07-24T16:42:49.033Z,2.90
2018-07-24T16:45:17.362Z,3.42
2018-07-24T16:47:45.574Z,2.70
2018-07-24T16:50:13.829Z,3.00
2018-07-24T16:52:42.073Z,3.17
2018-07-24T16:55:10.257Z,4.25
2018-07-24T16:57:38.465Z,4.75
2018-07-24T17:00:06.818Z,7.80
2018-07-24T17:02:35.019Z,7.00
2018-07-24T17:05:03.205Z,4.60
2018-07-24T17:07:31.417Z,3.58
2018-07-24T17:09:59.665Z,3.60
2018-07-24T17:12:28.132Z,3.35
2018-07-24T17:14:56.321Z,3.20
2018-07-24T17:17:24.717Z,3.90
2018-07-24T17:19:52.914Z,3.12
2018-07-24T17:22:21.122Z,3.40
2018-07-24T17:24:49.323Z,3.02
2018-07-24T17:27:17.563Z,2.85
2018-07-24T17:29:45.789Z,3.05
2018-07-24T17:32:14.039Z,3.90
2018-07-24T17:34:42.327Z,5.17
2018-07-24T17:37:10.579Z,3.22
2018-07-24T17:39:38.901Z,5.42
2018-07-24T17:42:07.096Z,3.30
2018-07-24T17:44:35.389Z,3.05
2018-07-24T17:47:03.603Z,3.45
2018-07-24T17:49:32.238Z,3.67
2018-07-24T17:52:01.194Z,2.90
2018-07-24T17:54:29.452Z,3.20
2018-07-24T17:56:57.630Z,3.47
2018-07-24T17:59:25.854Z,2.90
2018-07-24T18:01:54.372Z,3.08
2018-07-24T18:04:22.882Z,3.05
2018-07-24T18:06:51.087Z,3.40
2018-07-24T18:09:19.261Z,4.42
2018-07-24T18:11:47.461Z,3.10
2018-07-24T18:14:15.779Z,3.00
2018-07-24T18:16:44.193Z,3.20
2018-07-24T18:19:12.544Z,3.00
2018-07-24T18:21:40.669Z,2.70
2018-07-24T18:24:08.859Z,3.30
2018-07-24T18:26:37.092Z,3.50
2018-07-24T18:29:05.425Z,3.47
2018-07-24T18:31:33.612Z,4.72
2018-07-24T18:34:01.904Z,3.67
2018-07-24T18:36:30.221Z,3.85
2018-07-24T18:38:58.985Z,3.33
2018-07-24T18:41:27.688Z,3.08
2018-07-24T18:43:55.900Z,3.70
2018-07-24T18:46:24.077Z,3.45
2018-07-24T18:48:52.362Z,3.40
2018-07-24T18:51:20.539Z,4.55
2018-07-24T18:53:49.443Z,3.55
2018-07-24T18:56:20.320Z,3.70
2018-07-24T18:58:48.665Z,3.20
2018-07-24T19:01:16.937Z,3.60
2018-07-24T19:03:45.111Z,3.05
2018-07-24T19:06:13.426Z,3.77
2018-07-24T19:08:41.654Z,3.77
2018-07-24T19:11:10.116Z,4.00
2018-07-24T19:13:38.604Z,3.70
2018-07-24T19:16:07.104Z,3.65
2018-07-24T19:18:35.642Z,4.05
2018-07-24T19:21:03.942Z,3.77
2018-07-24T19:23:32.420Z,4.53
2018-07-24T19:26:01.101Z,4.20
2018-07-24T19:28:29.710Z,3.50
2018-07-24T19:30:58.207Z,3.60
2018-07-24T19:33:26.619Z,4.05
2018-07-24T19:35:55.125Z,4.25
2018-07-24T19:38:23.545Z,4.12
2018-07-24T19:40:52.193Z,4.20
2018-07-24T19:43:20.740Z,3.80
2018-07-24T19:45:49.451Z,4.37
2018-07-24T19:48:18.498Z,4.10
2018-07-24T19:50:46.837Z,4.35
2018-07-24T19:53:15.189Z,4.27
2018-07-24T19:55:43.752Z,4.10
2018-07-24T19:58:12.650Z,4.37
2018-07-24T20:00:41.236Z,3.70
2018-07-24T20:03:09.766Z,3.83
2018-07-24T20:05:38.893Z,4.30
2018-07-24T20:08:07.508Z,4.80
2018-07-24T20:10:36.174Z,4.30
2018-07-24T20:13:04.555Z,4.30
2018-07-24T20:15:33.030Z,4.00
2018-07-24T20:18:01.413Z,4.10
2018-07-24T20:20:29.722Z,4.00
2018-07-24T20:22:58.305Z,3.73
2018-07-24T20:25:26.597Z,3.87
2018-07-24T20:27:54.901Z,4.33
2018-07-24T20:30:23.319Z,3.73
2018-07-24T20:32:52.297Z,4.13
2018-07-24T20:35:20.743Z,3.97
2018-07-24T20:37:49.366Z,3.60
2018-07-24T20:40:17.715Z,5.43
2018-07-24T20:42:46.146Z,3.83
2018-07-24T20:45:14.388Z,6.33
2018-07-24T20:47:48.954Z,5.93
2018-07-24T20:50:17.538Z,4.30
2018-07-24T20:52:46.673Z,4.50
2018-07-24T20:55:14.915Z,3.90
2018-07-24T20:57:43.281Z,4.10
2018-07-24T21:00:11.719Z,3.60
2018-07-24T21:02:40.233Z,3.33
2018-07-24T21:05:08.579Z,3.90
2018-07-24T21:07:36.872Z,3.80
2018-07-24T21:10:09.641Z,3.40
2018-07-24T21:12:37.930Z,3.07
2018-07-24T21:15:06.244Z,3.40
2018-07-24T21:17:34.502Z,3.70
2018-07-24T21:20:02.704Z,4.63
2018-07-24T21:22:30.932Z,3.27
2018-07-24T21:24:59.113Z,3.37
2018-07-24T21:27:28.229Z,3.53
2018-07-24T21:29:56.583Z,3.00
2018-07-24T21:32:24.910Z,3.30
2018-07-24T21:34:53.276Z,3.43
2018-07-24T21:37:21.516Z,3.80
2018-07-24T21:39:49.761Z,3.80
2018-07-24T21:42:18.184Z,3.50
2018-07-24T21:44:46.398Z,3.83
2018-07-24T21:47:14.607Z,3.70
2018-07-24T21:49:42.795Z,3.77
2018-07-24T21:52:11.100Z,3.23
2018-07-24T21:54:39.401Z,3.20
2018-07-24T21:57:07.735Z,4.00
2018-07-24T21:59:36.006Z,3.63
2018-07-24T22:02:04.206Z,3.90
2018-07-24T22:04:32.460Z,3.90
2018-07-24T22:07:00.644Z,3.60
2018-07-24T22:09:28.903Z,4.47
2018-07-24T22:11:57.162Z,3.30
2018-07-24T22:14:25.519Z,3.33
2018-07-24T22:16:53.813Z,3.40
2018-07-24T22:19:22.014Z,3.43
2018-07-24T22:21:50.215Z,3.03
2018-07-24T22:24:18.452Z,3.57
2018-07-24T22:26:46.725Z,3.27
2018-07-24T22:29:14.941Z,3.63
2018-07-24T22:31:43.104Z,3.40
2018-07-24T22:34:11.361Z,3.00
2018-07-24T22:36:39.624Z,2.80
2018-07-24T22:39:09.144Z,3.50
2018-07-24T22:41:38.135Z,3.50
2018-07-24T22:44:06.400Z,3.37
2018-07-24T22:46:34.698Z,3.70
2018-07-24T22:49:02.900Z,3.33
2018-07-24T22:51:31.158Z,4.10
2018-07-24T22:53:59.582Z,3.17
2018-07-24T22:56:27.727Z,3.30
2018-07-24T22:58:55.867Z,3.73
2018-07-24T23:01:24.004Z,3.10
2018-07-24T23:03:52.187Z,3.30
2018-07-24T23:06:20.433Z,3.50
2018-07-24T23:08:48.609Z,4.13
2018-07-24T23:11:16.875Z,3.50
2018-07-24T23:13:45.154Z,3.93
2018-07-24T23:16:13.362Z,6.00
2018-07-24T23:18:41.665Z,3.60
2018-07-24T23:21:10.020Z,3.87
2018-07-24T23:23:38.453Z,3.63
2018-07-24T23:26:06.638Z,3.63
2018-07-24T23:28:34.794Z,3.83
2018-07-24T23:31:03.056Z,3.57
2018-07-24T23:33:31.274Z,4.73
2018-07-24T23:35:59.533Z,4.13
2018-07-24T23:38:28.000Z,4.10
2018-07-24T23:40:56.196Z,4.10
2018-07-24T23:43:24.368Z,3.60
2018-07-24T23:45:52.612Z,3.87
2018-07-24T23:48:20.779Z,3.73
2018-07-24T23:50:49.030Z,3.60
2018-07-24T23:53:17.516Z,3.60
2018-07-24T23:55:45.719Z,3.60
2018-07-24T23:58:13.927Z,3.90
